Time;durP1;ratioP1;P1;durP2;ratioP2;P2;SDS_P1;SDS_P2;PMS_P1;PMS_P2;Temp;Humidity;BMP_temperature;BMP_pressure;BME280_temperature;BME280_humidity;BME280_pressure;Samples;Min_cycle;Max_cycle;Signal;HPM_P1;HPM_P2
2022/09/21 00:01:27;;;;;;;0.80;0.80;;;8.80;80.60;;;8.39;68.75;95539.91;5028390;28;20241;-82
2022/09/21 00:03:58;;;;;;;0.80;0.80;;;8.80;80.50;;;8.41;68.87;95538.75;5041001;28;20554;-82
2022/09/21 00:06:29;;;;;;;0.80;0.80;;;8.90;80.50;;;8.40;68.88;95544.13;5032383;28;20223;-83
2022/09/21 00:08:57;;;;;;;0.70;0.70;;;8.80;80.40;;;8.40;68.94;95541.53;5076453;28;20199;-83
2022/09/21 00:11:27;;;;;;;0.70;0.70;;;8.90;80.30;;;8.45;68.37;95550.53;5060412;28;20222;-82
2022/09/21 00:14:03;;;;;;;0.68;0.68;;;9.00;80.30;;;8.44;68.30;95540.22;5077301;28;20693;-83
2022/09/21 00:16:30;;;;;;;0.80;0.80;;;8.90;80.20;;;8.43;68.49;95533.38;5075153;28;20228;-83
2022/09/21 00:18:59;;;;;;;0.77;0.77;;;9.00;80.30;;;8.37;68.37;95526.97;5055392;28;20235;-83
2022/09/21 00:21:27;;;;;;;0.80;0.80;;;8.90;80.20;;;8.45;68.63;95540.06;5068942;28;20238;-84
2022/09/21 00:23:54;;;;;;;0.80;0.80;;;8.90;80.30;;;8.42;68.89;95526.50;5060492;28;20209;-82
2022/09/21 00:26:25;;;;;;;0.80;0.80;;;8.90;80.50;;;8.45;68.71;95527.00;5040777;28;20583;-83
2022/09/21 00:28:55;;;;;;;0.80;0.80;;;8.90;80.40;;;8.43;68.94;95525.53;5040140;28;20211;-83
2022/09/21 00:31:23;;;;;;;0.70;0.70;;;9.00;80.50;;;8.43;69.37;95528.94;5039930;28;20221;-82
2022/09/21 00:33:50;;;;;;;0.80;0.80;;;9.00;80.60;;;8.40;69.65;95533.69;5056546;28;20234;-83
2022/09/21 00:36:21;;;;;;;0.73;0.73;;;9.00;80.60;;;8.43;68.93;95534.16;5053563;28;20652;-83
2022/09/21 00:38:57;;;;;;;0.80;0.80;;;8.90;80.50;;;8.43;69.34;95531.56;5074752;28;20656;-82
2022/09/21 00:41:26;;;;;;;0.70;0.70;;;9.00;80.70;;;8.44;69.38;95530.59;5039424;28;20563;-83
2022/09/21 00:44:24;;;;;;;0.80;0.80;;;9.00;80.70;;;8.43;69.24;95531.56;5066216;28;20668;-82
2022/09/21 00:46:57;;;;;;;0.70;0.70;;;9.00;80.80;;;8.44;69.02;95533.19;5069987;28;20246;-82
2022/09/21 00:49:26;;;;;;;0.70;0.70;;;9.00;80.70;;;8.39;69.21;95525.03;5064710;28;20198;-83
2022/09/21 00:51:55;;;;;;;0.70;0.70;;;9.00;80.90;;;8.47;69.29;95532.06;5059849;28;20221;-83
2022/09/21 00:54:32;;;;;;;0.80;0.80;;;9.10;80.80;;;8.49;69.23;95535.34;5059079;28;20203;-83
2022/09/21 00:57:01;;;;;;;0.70;0.70;;;9.00;80.80;;;8.51;69.03;95535.19;5059227;28;20672;-82
2022/09/21 00:59:31;;;;;;;0.70;0.70;;;9.00;80.70;;;8.55;69.09;95550.38;5050199;28;20198;-83
2022/09/21 01:01:59;;;;;;;0.70;0.70;;;9.00;80.80;;;8.57;69.05;95542.38;5076198;28;20230;-83
2022/09/21 01:04:27;;;;;;;0.60;0.60;;;9.10;80.80;;;8.60;69.08;95540.25;5059249;28;20652;-82
2022/09/21 01:06:56;;;;;;;0.80;0.80;;;9.10;80.90;;;8.62;68.89;95534.88;5053395;28;20297;-83
2022/09/21 01:09:24;;;;;;;0.65;0.65;;;9.10;80.90;;;8.63;69.08;95537.31;5070751;28;20653;-83
2022/09/21 01:12:32;;;;;;;0.70;0.70;;;9.10;80.70;;;8.64;68.63;95535.50;5055841;28;20223;-83
2022/09/21 01:15:20;;;;;;;0.70;0.70;;;9.10;80.70;;;8.62;68.65;95538.28;5063337;28;20199;-83
2022/09/21 01:18:41;;;;;;;0.70;0.70;;;9.10;80.70;;;8.64;68.69;95538.97;5067157;28;20651;-83
2022/09/21 01:21:22;;;;;;;0.60;0.60;;;9.10;80.80;;;8.57;69.13;95535.38;5014734;28;20196;-83
2022/09/21 01:24:20;;;;;;;0.70;0.70;;;9.20;80.90;;;8.58;69.09;95539.63;5052061;28;20767;-82
2022/09/21 01:27:12;;;;;;;0.80;0.80;;;9.10;80.80;;;8.58;68.87;95539.63;5074511;28;20238;-82
2022/09/21 01:29:50;;;;;;;0.80;0.80;;;9.10;80.80;;;8.58;69.09;95541.41;5075401;28;20201;-83
2022/09/21 01:32:39;;;;;;;0.70;0.70;;;9.10;80.70;;;8.54;68.98;95545.34;5035943;28;20222;-83
2022/09/21 01:35:56;;;;;;;0.68;0.68;;;9.10;80.80;;;8.53;69.27;95541.88;5084677;28;20190;-80
2022/09/21 01:38:34;;;;;;;0.70;0.70;;;9.10;80.90;;;8.52;69.07;95542.06;5072678;28;20230;-82
2022/09/21 01:41:05;;;;;;;0.70;0.70;;;9.10;80.70;;;8.55;68.48;95544.34;5038344;28;20206;-82
2022/09/21 01:43:45;;;;;;;0.68;0.68;;;9.10;80.60;;;8.50;69.29;95542.22;5055113;28;20253;-82
2022/09/21 01:46:17;;;;;;;0.70;0.70;;;9.10;80.80;;;8.54;69.05;95540.91;5055220;28;20184;-83
2022/09/21 01:48:49;;;;;;;0.70;0.70;;;9.10;80.90;;;8.54;69.20;95537.50;5055156;28;20225;-83
2022/09/21 01:51:19;;;;;;;0.60;0.60;;;9.10;80.90;;;8.62;69.07;95542.72;5042923;28;20211;-82
2022/09/21 01:54:04;;;;;;;0.70;0.70;;;9.10;80.90;;;8.62;68.96;95540.91;5047088;28;20206;-83
2022/09/21 01:56:41;;;;;;;0.70;0.70;;;9.10;81.00;;;8.65;68.92;95539.75;5058184;28;20218;-82
2022/09/21 01:59:29;;;;;;;0.70;0.70;;;9.10;81.00;;;8.64;69.12;95536.34;5053449;28;20306;-83
2022/09/21 02:02:08;;;;;;;0.70;0.70;;;9.10;81.10;;;8.69;68.94;95537.63;5083908;28;20223;-83
2022/09/21 02:04:36;;;;;;;0.70;0.70;;;9.10;80.90;;;8.70;69.13;95539.28;5058299;28;20194;-82
2022/09/21 02:07:03;;;;;;;0.70;0.70;;;9.20;80.90;;;8.74;68.82;95540.56;5058601;28;20264;-83
2022/09/21 02:09:32;;;;;;;0.63;0.63;;;9.20;80.90;;;8.75;68.80;95548.28;5040269;28;20685;-81
2022/09/21 02:12:01;;;;;;;0.80;0.80;;;9.20;80.90;;;8.77;68.87;95542.88;5047895;28;20219;-82
2022/09/21 02:14:28;;;;;;;0.70;0.70;;;9.20;80.90;;;8.81;68.48;95542.38;5046856;28;20594;-82
2022/09/21 02:17:45;;;;;;;0.70;0.70;;;9.30;80.90;;;8.87;68.13;95532.22;5047754;28;20234;-82
2022/09/21 02:20:35;;;;;;;0.70;0.70;;;9.20;80.80;;;8.81;68.39;95531.91;5083817;28;20321;-82
2022/09/21 02:23:25;;;;;;;0.70;0.70;;;9.30;80.70;;;8.82;68.03;95535.34;5046490;28;20227;-83
2022/09/21 02:26:02;;;;;;;0.70;0.70;;;9.30;80.50;;;8.81;68.12;95545.00;5031703;28;20209;-83
2022/09/21 02:28:35;;;;;;;0.70;0.70;;;9.30;80.50;;;8.79;67.95;95539.09;5045522;28;20284;-83
2022/09/21 02:31:33;;;;;;;0.80;0.80;;;9.20;80.30;;;8.75;68.08;95536.97;5065710;28;20181;-83
2022/09/21 02:34:19;;;;;;;0.70;0.70;;;9.30;80.40;;;8.69;67.97;95535.84;5064405;28;20613;-83
2022/09/21 02:37:05;;;;;;;0.60;0.60;;;9.20;80.20;;;8.69;67.25;95546.31;5045565;28;20231;-84
2022/09/21 02:39:59;;;;;;;0.60;0.60;;;9.10;80.20;;;8.63;68.52;95544.38;5045406;28;20238;-83
2022/09/21 02:42:36;;;;;;;0.70;0.70;;;9.20;80.50;;;8.62;68.20;95537.50;5054165;28;20300;-83
2022/09/21 02:45:14;;;;;;;0.70;0.70;;;9.20;80.50;;;8.64;68.31;95541.56;5034179;28;20230;-83
2022/09/21 02:48:08;;;;;;;0.70;0.70;;;9.20;80.50;;;8.63;68.40;95549.59;5036586;28;20302;-83
2022/09/21 02:50:43;;;;;;;0.70;0.70;;;9.10;80.80;;;8.61;68.28;95543.69;5054989;28;20198;-83
2022/09/21 02:53:16;;;;;;;0.70;0.70;;;9.10;80.50;;;8.64;68.25;95548.59;5068575;28;20218;-82
2022/09/21 02:55:45;;;;;;;0.80;0.80;;;9.10;80.40;;;8.68;68.12;95556.91;5058119;28;20641;-83
2022/09/21 02:58:15;;;;;;;0.70;0.70;;;9.10;80.40;;;8.63;67.77;95553.00;5049665;28;20423;-82
2022/09/21 03:00:42;;;;;;;0.70;0.70;;;9.10;80.40;;;8.63;68.45;95550.41;5051241;28;20201;-83
2022/09/21 03:03:22;;;;;;;0.63;0.63;;;9.10;80.50;;;8.60;68.36;95548.09;5052577;28;20223;-83
2022/09/21 03:05:53;;;;;;;0.80;0.80;;;9.10;80.50;;;8.60;68.33;95555.13;5033558;28;20288;-83
2022/09/21 03:08:21;;;;;;;0.80;0.80;;;9.20;80.50;;;8.61;68.00;95554.16;5066153;28;20210;-83
2022/09/21 03:10:49;;;;;;;0.77;0.77;;;9.10;80.40;;;8.65;68.13;95558.06;5040023;28;20706;-83
2022/09/21 03:13:17;;;;;;;0.80;0.80;;;9.10;80.40;;;8.65;68.08;95560.69;5053055;28;20222;-83
2022/09/21 03:15:46;;;;;;;0.60;0.60;;;9.10;80.50;;;8.59;68.30;95554.34;5051870;28;20195;-83
2022/09/21 03:18:12;;;;;;;0.80;0.80;;;9.10;80.50;;;8.65;68.34;95558.91;5052707;28;20321;-82
2022/09/21 03:20:47;;;;;;;0.63;0.63;;;9.20;80.50;;;8.63;67.94;95573.94;5050388;28;20226;-82
2022/09/21 03:23:14;;;;;;;0.60;0.60;;;9.10;80.40;;;8.63;68.12;95566.09;5050355;28;20230;-83
2022/09/21 03:25:44;;;;;;;0.70;0.70;;;9.10;80.20;;;8.64;67.84;95572.94;5033765;28;20203;-83
2022/09/21 03:28:13;;;;;;;0.70;0.70;;;9.10;80.20;;;8.64;67.93;95572.94;5048773;28;20208;-82
2022/09/21 03:30:40;;;;;;;0.60;0.60;;;9.10;80.20;;;8.65;67.69;95571.16;5049127;28;20210;-83
2022/09/21 03:33:08;;;;;;;0.70;0.70;;;9.10;80.20;;;8.67;67.39;95571.81;5049618;28;20207;-82
2022/09/21 03:35:35;;;;;;;0.60;0.60;;;9.00;80.20;;;8.66;67.71;95572.78;5035758;28;20199;-81
2022/09/21 03:38:03;;;;;;;0.70;0.70;;;9.20;80.40;;;8.68;67.76;95578.69;5051098;28;20302;-81
2022/09/21 03:40:30;;;;;;;0.60;0.60;;;9.20;80.50;;;8.63;68.11;95579.16;5049042;28;20183;-82
2022/09/21 03:42:58;;;;;;;0.70;0.70;;;9.10;80.30;;;8.67;67.90;95581.44;5054520;28;20226;-81
2022/09/21 03:45:28;;;;;;;0.80;0.80;;;9.00;80.20;;;8.68;67.72;95577.84;5051567;28;20202;-83
2022/09/21 03:48:00;;;;;;;0.60;0.60;;;9.10;80.30;;;8.69;67.65;95588.16;5049914;28;20569;-82
2022/09/21 03:50:29;;;;;;;0.60;0.60;;;9.10;80.40;;;8.68;67.68;95586.53;5050025;28;20682;-82
2022/09/21 03:52:56;;;;;;;0.70;0.70;;;9.10;80.40;;;8.72;67.46;95594.88;5033575;28;20218;-82
2022/09/21 03:55:24;;;;;;;0.70;0.70;;;9.10;80.30;;;8.76;67.63;95599.59;5038048;28;20623;-84
2022/09/21 03:57:52;;;;;;;0.70;0.70;;;9.10;80.40;;;8.80;67.46;95597.44;5065768;28;20223;-85
2022/09/21 04:00:20;;;;;;;0.70;0.70;;;9.10;80.40;;;8.81;67.35;95601.72;5030796;28;20214;-84
2022/09/21 04:02:48;;;;;;;0.60;0.60;;;9.10;80.40;;;8.83;67.38;95596.34;5048403;28;20226;-84
2022/09/21 04:05:16;;;;;;;0.70;0.70;;;9.10;80.30;;;8.81;67.45;95593.88;5059195;28;20289;-83
2022/09/21 04:07:46;;;;;;;0.70;0.70;;;9.20;80.30;;;8.84;67.38;95592.72;5032008;28;20723;-82
2022/09/21 04:10:20;;;;;;;0.80;0.80;;;9.20;80.40;;;8.84;67.09;95588.31;5048083;28;20186;-84
2022/09/21 04:12:48;;;;;;;0.70;0.70;;;9.20;80.20;;;8.84;67.06;95590.09;5041371;28;20223;-84
2022/09/21 04:15:20;;;;;;;0.70;0.70;;;9.20;80.10;;;8.80;67.01;95587.81;5055937;28;20191;-84
2022/09/21 04:17:51;;;;;;;0.70;0.70;;;9.20;80.10;;;8.81;67.15;95599.09;5053366;28;20226;-84
2022/09/21 04:20:19;;;;;;;0.63;0.63;;;9.20;80.10;;;8.79;67.01;95594.03;5040389;28;20672;-84
2022/09/21 04:22:46;;;;;;;0.70;0.70;;;9.20;80.00;;;8.76;67.10;95590.94;5072403;28;20229;-83
2022/09/21 04:25:14;;;;;;;0.70;0.70;;;9.10;80.00;;;8.75;67.04;95595.34;5059970;28;20191;-83
2022/09/21 04:27:41;;;;;;;0.70;0.70;;;9.10;80.00;;;8.74;67.25;95595.50;5058615;28;20221;-84
2022/09/21 04:30:15;;;;;;;0.60;0.60;;;9.10;80.10;;;8.75;67.22;95595.34;5060320;28;20220;-82
2022/09/21 04:32:42;;;;;;;0.68;0.68;;;9.10;80.10;;;8.72;67.54;95593.06;5059708;28;20292;-83
2022/09/21 04:35:10;;;;;;;0.70;0.70;;;9.20;80.10;;;8.70;67.36;95597.63;5076862;28;20191;-84
2022/09/21 04:37:37;;;;;;;0.70;0.70;;;9.10;80.10;;;8.75;67.46;95604.97;5042832;28;20223;-83
2022/09/21 04:40:06;;;;;;;0.80;0.80;;;9.20;80.30;;;8.75;67.53;95612.81;5057823;28;20198;-84
2022/09/21 04:42:34;;;;;;;0.70;0.70;;;9.10;80.20;;;8.76;67.48;95602.22;5023678;28;20227;-84
2022/09/21 04:45:01;;;;;;;0.70;0.70;;;9.20;80.30;;;8.75;67.65;95611.03;5042838;28;20205;-85
2022/09/21 04:47:30;;;;;;;0.70;0.70;;;9.20;80.30;;;8.76;67.44;95610.06;5049926;28;20229;-84
2022/09/21 04:49:57;;;;;;;0.70;0.70;;;9.20;80.30;;;8.76;67.41;95607.47;5057506;28;20214;-84
2022/09/21 04:52:24;;;;;;;0.70;0.70;;;9.20;80.30;;;8.74;67.87;95611.19;5042963;28;20227;-84
2022/09/21 04:54:52;;;;;;;0.70;0.70;;;9.20;80.20;;;8.75;67.67;95611.03;5060367;28;20209;-84
2022/09/21 04:57:19;;;;;;;0.70;0.70;;;9.30;80.30;;;8.74;67.46;95608.56;5059703;28;20221;-83
2022/09/21 04:59:46;;;;;;;0.70;0.70;;;9.20;80.10;;;8.74;67.46;95609.41;5050639;28;20196;-84
2022/09/21 05:02:13;;;;;;;0.60;0.60;;;9.20;80.90;;;8.69;67.72;95611.69;5047528;28;20262;-83
2022/09/21 05:04:40;;;;;;;0.60;0.60;;;9.20;80.10;;;8.67;67.35;95616.25;5047945;28;20206;-84
2022/09/21 05:07:07;;;;;;;0.80;0.80;;;9.10;80.00;;;8.65;67.51;95621.66;5037090;28;20710;-84
2022/09/21 05:12:20;;;;;;;0.60;0.60;;;9.10;80.00;;;8.55;68.13;95610.53;5053726;28;20219;-83
2022/09/21 05:14:47;;;;;;;0.80;0.80;;;9.10;80.10;;;8.56;68.28;95614.78;5031762;28;20195;-84
2022/09/21 05:17:14;;;;;;;0.80;0.80;;;9.10;80.20;;;8.55;68.21;95620.19;5042730;28;20260;-83
2022/09/21 05:19:41;;;;;;;0.70;0.70;;;9.10;80.20;;;8.53;67.82;95625.53;5040621;28;20239;-83
2022/09/21 05:22:08;;;;;;;0.70;0.70;;;9.10;80.30;;;8.56;68.14;95630.47;5050003;28;20219;-84
2022/09/21 05:24:35;;;;;;;0.60;0.60;;;9.10;80.30;;;8.55;68.26;95620.97;5048531;28;20195;-84
2022/09/21 05:27:02;;;;;;;0.70;0.70;;;9.00;80.40;;;8.56;68.45;95625.25;5047967;28;20275;-84
2022/09/21 05:29:29;;;;;;;0.60;0.60;;;9.00;80.50;;;8.51;68.77;95622.28;5031279;28;20245;-84
2022/09/21 05:32:30;;;;;;;0.80;0.80;;;9.10;80.70;;;8.59;68.47;95631.94;5032511;28;20206;-83
2022/09/21 05:35:09;;;;;;;0.70;0.70;;;9.10;80.70;;;8.59;68.68;95635.38;5071476;28;20251;-84
2022/09/21 05:37:56;;;;;;;0.70;0.70;;;9.10;80.80;;;8.62;68.77;95629.00;5048478;28;20276;-83
2022/09/21 05:40:24;;;;;;;0.70;0.70;;;9.10;81.00;;;8.60;69.10;95626.53;5049541;28;20200;-84
2022/09/21 05:42:52;;;;;;;0.70;0.70;;;9.10;81.00;;;8.67;68.90;95636.34;5038508;28;20267;-83
2022/09/21 05:45:20;;;;;;;0.70;0.70;;;9.20;81.30;;;8.79;69.18;95648.97;5048854;28;20223;-84
2022/09/21 05:48:15;;;;;;;0.70;0.70;;;9.20;81.40;;;8.83;68.83;95640.81;5047557;28;20249;-83
2022/09/21 05:50:52;;;;;;;0.60;0.60;;;9.30;81.40;;;8.95;68.74;95655.19;5049435;28;20199;-83
2022/09/21 05:53:50;;;;;;;0.80;0.80;;;9.40;81.40;;;9.02;68.78;95650.13;5066305;28;20224;-83
2022/09/21 05:56:52;;;;;;;0.75;0.75;;;9.40;81.30;;;9.06;68.60;95654.06;5054620;28;20202;-84
2022/09/21 05:59:45;;;;;;;0.60;0.60;;;9.50;81.10;;;9.14;68.33;95659.25;5039136;28;20252;-83
2022/09/21 06:02:38;;;;;;;0.70;0.70;;;9.60;81.00;;;9.21;68.17;95657.63;5053602;28;20719;-85
2022/09/21 06:05:11;;;;;;;0.60;0.60;;;9.70;81.00;;;9.26;68.12;95659.75;5053507;28;20187;-84
2022/09/21 06:07:38;;;;;;;0.80;0.80;;;9.70;80.90;;;9.29;68.31;95657.63;5055054;28;20227;-84
2022/09/21 06:10:06;;;;;;;0.60;0.60;;;9.80;80.90;;;9.40;67.91;95666.16;5039234;28;20187;-83
2022/09/21 06:12:34;;;;;;;0.70;0.70;;;9.80;81.00;;;9.44;68.17;95665.63;5048041;28;20230;-84
2022/09/21 06:15:00;;;;;;;0.80;0.80;;;9.80;80.90;;;9.57;67.83;95669.53;5040722;28;20631;-84
2022/09/21 06:17:28;;;;;;;0.70;0.70;;;9.90;81.00;;;9.63;67.88;95666.28;5036315;28;20229;-84
2022/09/21 06:19:55;;;;;;;0.70;0.70;;;9.90;81.10;;;9.65;67.84;95664.28;5040924;28;20272;-84
2022/09/21 06:22:22;;;;;;;0.80;0.80;;;10.00;79.90;;;9.80;67.46;95672.25;5048830;28;20306;-84
2022/09/21 06:24:49;;;;;;;0.70;0.70;;;10.10;79.90;;;9.87;67.92;95672.41;5057772;28;20212;-85
2022/09/21 06:27:16;;;;;;;0.70;0.70;;;10.20;79.90;;;9.88;67.43;95660.97;5048842;28;20250;-84
2022/09/21 06:29:45;;;;;;;0.80;0.80;;;10.20;79.80;;;9.98;67.36;95677.28;5046277;28;20235;-82
2022/09/21 06:32:12;;;;;;;0.80;0.80;;;10.30;79.80;;;10.03;67.27;95675.00;5048299;28;20226;-80
2022/09/21 06:34:39;;;;;;;0.73;0.73;;;10.40;79.70;;;10.06;67.47;95679.88;5030015;28;20190;-82
2022/09/21 06:37:06;;;;;;;0.70;0.70;;;10.40;80.40;;;10.04;66.92;95674.00;5045541;28;20301;-81
2022/09/21 06:39:33;;;;;;;0.70;0.70;;;10.50;80.10;;;10.13;67.08;95677.41;5048191;28;20205;-81
2022/09/21 06:42:00;;;;;;;0.70;0.70;;;10.50;79.30;;;10.19;67.21;95681.97;5036271;28;20237;-81
2022/09/21 06:44:28;;;;;;;0.70;0.70;;;10.60;79.30;;;10.24;67.02;95681.44;5020339;28;20223;-80
2022/09/21 06:46:55;;;;;;;0.70;0.70;;;10.70;79.30;;;10.24;67.09;95677.03;5021377;28;20219;-81
2022/09/21 06:49:22;;;;;;;0.70;0.70;;;10.70;79.30;;;10.28;66.86;95671.44;5038120;28;20191;-82
2022/09/21 06:51:49;;;;;;;0.80;0.80;;;10.70;79.10;;;10.28;66.59;95669.66;5053071;28;20301;-82
2022/09/21 06:54:17;;;;;;;0.70;0.70;;;10.80;79.00;;;10.33;66.73;95683.06;5019773;28;20198;-81
2022/09/21 06:56:45;;;;;;;0.70;0.70;;;10.80;79.00;;;10.34;66.75;95670.75;5036574;28;20214;-80
2022/09/21 06:59:12;;;;;;;0.70;0.70;;;10.90;79.10;;;10.43;66.86;95688.13;5036966;28;20688;-82
2022/09/21 07:01:39;;;;;;;0.70;0.70;;;10.90;79.00;;;10.52;66.85;95702.84;5020614;28;20210;-82
2022/09/21 07:04:08;;;;;;;0.63;0.63;;;11.00;79.00;;;10.51;66.44;95687.25;5036805;28;20222;-81
2022/09/21 07:06:35;;;;;;;0.70;0.70;;;11.00;78.90;;;10.49;66.27;95691.88;5037438;28;20214;-81
2022/09/21 07:09:02;;;;;;;0.70;0.70;;;11.00;78.60;;;10.52;65.75;95697.59;5046191;28;20679;-82
2022/09/21 07:11:49;;;;;;;0.70;0.70;;;11.10;78.20;;;10.51;65.90;95695.97;5057075;28;20336;-82
2022/09/21 07:14:17;;;;;;;0.80;0.80;;;11.10;78.10;;;10.53;65.91;95701.03;5046195;28;20207;-82
2022/09/21 07:16:45;;;;;;;0.70;0.70;;;11.10;78.00;;;10.49;65.98;95702.38;5046628;28;20313;-81
2022/09/21 07:19:12;;;;;;;0.80;0.80;;;11.20;78.00;;;10.59;65.92;95712.66;5046939;28;20183;-81
2022/09/21 07:21:39;;;;;;;0.70;0.70;;;11.10;78.90;;;10.57;66.11;95702.34;5046885;28;20214;-81
2022/09/21 07:24:06;;;;;;;0.80;0.80;;;11.20;78.10;;;10.63;66.03;95701.63;5055629;28;20219;-81
2022/09/21 07:26:38;;;;;;;0.70;0.70;;;11.20;78.10;;;10.68;65.81;95707.19;5046949;28;20219;-82
2022/09/21 07:29:05;;;;;;;0.70;0.70;;;11.20;79.00;;;10.69;65.99;95708.81;5048230;28;20607;-82
2022/09/21 07:31:33;;;;;;;0.70;0.70;;;11.20;78.20;;;10.76;65.97;95718.63;5050927;28;20215;-82
2022/09/21 07:34:00;;;;;;;0.70;0.70;;;11.30;78.30;;;10.75;66.02;95707.28;5050978;28;20198;-82
2022/09/21 07:36:27;;;;;;;0.80;0.80;;;11.30;78.30;;;10.84;66.14;95708.88;5042529;28;20425;-82
2022/09/21 07:38:54;;;;;;;0.90;0.90;;;11.40;78.40;;;10.94;66.10;95718.34;5060765;28;20202;-81
2022/09/21 07:41:21;;;;;;;0.70;0.70;;;11.40;78.40;;;10.94;65.88;95707.84;5059602;28;20207;-81
2022/09/21 07:43:49;;;;;;;0.80;0.80;;;11.40;78.50;;;11.00;65.85;95707.16;5059468;28;20279;-81
2022/09/21 07:46:16;;;;;;;0.70;0.70;;;11.50;78.40;;;11.06;65.60;95703.84;5043668;28;20205;-81
2022/09/21 07:48:43;;;;;;;0.80;0.80;;;11.50;78.20;;;11.09;65.58;95715.78;5059454;28;20198;-82
2022/09/21 07:51:13;;;;;;;0.70;0.70;;;11.60;78.30;;;11.16;65.64;95721.97;5040362;28;20189;-81
2022/09/21 07:53:45;;;;;;;0.70;0.70;;;11.60;78.00;;;11.22;65.67;95716.03;5042505;28;20243;-82
2022/09/21 07:56:15;;;;;;;0.68;0.68;;;11.70;78.20;;;11.29;65.61;95721.38;5042793;28;20285;-82
2022/09/21 07:59:05;;;;;;;0.70;0.70;;;11.80;78.20;;;11.35;65.61;95726.75;5042952;28;20537;-81
2022/09/21 08:01:37;;;;;;;0.70;0.70;;;11.80;78.30;;;11.44;65.63;95724.06;5079887;28;20279;-82
2022/09/21 08:04:10;;;;;;;0.70;0.70;;;11.90;78.30;;;11.48;65.23;95723.50;5060652;28;20228;-82
2022/09/21 08:06:40;;;;;;;0.70;0.70;;;11.90;78.10;;;11.54;64.68;95722.00;5060671;28;20222;-82
2022/09/21 08:09:09;;;;;;;0.70;0.70;;;12.00;77.80;;;11.57;65.06;95708.53;5061170;28;20715;-82
2022/09/21 08:11:36;;;;;;;0.70;0.70;;;12.00;78.00;;;11.68;65.32;95708.06;5044308;28;20218;-82
2022/09/21 08:14:03;;;;;;;0.70;0.70;;;12.10;78.10;;;11.81;65.25;95717.97;5049316;28;20619;-81
2022/09/21 08:16:32;;;;;;;0.70;0.70;;;12.20;78.10;;;11.92;65.38;95721.97;5066358;28;20222;-80
2022/09/21 08:19:01;;;;;;;0.63;0.63;;;12.30;78.30;;;12.03;65.46;95715.47;5049716;28;20294;-81
2022/09/21 08:21:28;;;;;;;0.60;0.60;;;12.40;79.10;;;12.09;65.52;95712.13;5049210;28;20221;-81
2022/09/21 08:23:56;;;;;;;0.60;0.60;;;12.50;78.30;;;12.24;65.22;95719.19;5056284;28;20229;-81
2022/09/21 08:26:23;;;;;;;0.70;0.70;;;12.70;78.30;;;12.28;65.17;95712.56;5032700;28;20219;-80
2022/09/21 08:28:52;;;;;;;0.70;0.70;;;12.70;78.10;;;12.41;64.90;95719.81;5032384;28;20197;-80
2022/09/21 08:31:21;;;;;;;0.68;0.68;;;12.90;78.00;;;12.42;64.45;95714.38;5032268;28;20199;-80
2022/09/21 08:33:48;;;;;;;0.70;0.70;;;12.90;77.70;;;12.49;63.82;95719.72;5032908;28;20536;-80
2022/09/21 08:36:17;;;;;;;0.68;0.68;;;13.00;77.30;;;12.56;64.10;95723.25;5050749;28;20204;-81
2022/09/21 08:38:44;;;;;;;0.63;0.63;;;13.10;77.40;;;12.65;64.51;95723.97;5039685;28;20262;-82
2022/09/21 08:41:19;;;;;;;0.70;0.70;;;13.10;77.70;;;12.78;64.91;95724.13;5038108;28;20308;-81
2022/09/21 08:44:06;;;;;;;0.70;0.70;;;13.20;77.60;;;12.93;64.77;95725.91;5051924;28;20224;-81
2022/09/21 08:46:35;;;;;;;0.80;0.80;;;13.30;77.50;;;13.05;64.62;95728.84;5029008;28;20735;-82
2022/09/21 08:49:10;;;;;;;0.70;0.70;;;13.40;77.50;;;13.13;64.06;95715.56;5032812;28;20198;-81
2022/09/21 08:51:48;;;;;;;0.70;0.70;;;13.50;77.10;;;13.15;63.23;95718.81;5024098;28;20680;-81
2022/09/21 08:54:36;;;;;;;0.70;0.70;;;13.70;77.20;;;13.24;63.58;95712.44;5047174;28;20647;-83
2022/09/21 08:57:04;;;;;;;0.80;0.80;;;13.80;77.20;;;13.36;63.25;95725.09;5074725;28;20226;-83
2022/09/21 08:59:34;;;;;;;0.60;0.60;;;13.80;77.30;;;13.45;62.73;95716.91;5052850;28;20195;-83
2022/09/21 09:02:46;;;;;;;0.80;0.80;;;13.90;77.00;;;13.57;63.89;95719.84;5056639;28;20228;-82
2022/09/21 09:05:54;;;;;;;0.60;0.60;;;14.10;76.70;;;13.68;63.60;95723.75;5052063;28;20674;-81
2022/09/21 09:08:43;;;;;;;0.60;0.60;;;14.10;76.50;;;13.84;63.99;95725.31;5050426;28;20229;-82
2022/09/21 09:11:40;;;;;;;0.70;0.70;;;14.30;77.10;;;13.93;63.20;95718.06;5053379;28;20195;-80
2022/09/21 09:15:14;;;;;;;0.60;0.60;;;14.40;76.50;;;13.99;62.21;95722.56;5053776;28;20636;-80
2022/09/21 09:18:03;;;;;;;0.60;0.60;;;14.50;76.00;;;14.08;62.95;95731.94;4993829;28;20219;-80
2022/09/21 09:20:40;;;;;;;0.60;0.60;;;14.60;76.30;;;14.09;62.14;95722.22;5082100;28;20305;-80
2022/09/21 09:23:26;;;;;;;0.70;0.70;;;14.60;75.80;;;14.21;62.14;95725.16;5042958;28;20401;-82
2022/09/21 09:26:02;;;;;;;0.70;0.70;;;14.70;75.70;;;14.32;62.92;95726.41;5054514;28;20193;-81
2022/09/21 09:28:41;;;;;;;0.70;0.70;;;14.80;76.20;;;14.45;62.75;95715.09;5052300;28;20609;-80
2022/09/21 09:31:22;;;;;;;0.50;0.50;;;14.90;76.70;;;14.58;62.96;95718.59;5055613;28;20194;-80
2022/09/21 09:34:10;;;;;;;0.68;0.68;;;15.00;76.10;;;14.73;62.99;95722.97;5073955;28;20644;-82
2022/09/21 09:36:44;;;;;;;0.60;0.60;;;15.10;76.30;;;14.86;62.19;95727.50;5074259;28;20675;-81
2022/09/21 09:39:29;;;;;;;0.70;0.70;;;15.30;76.00;;;14.93;61.51;95725.69;5057636;28;20198;-81
2022/09/21 09:42:26;;;;;;;0.70;0.70;;;15.40;75.60;;;14.99;60.76;95727.53;5057477;28;20221;-81
2022/09/21 09:45:14;;;;;;;0.60;0.60;;;15.50;74.30;;;15.04;61.21;95724.28;5073045;28;20312;-82
2022/09/21 09:48:12;;;;;;;0.60;0.60;;;15.50;75.10;;;15.09;61.80;95724.50;5069845;28;20233;-81
2022/09/21 09:50:40;;;;;;;0.60;0.60;;;15.60;75.00;;;15.15;61.67;95714.97;5072998;28;20273;-81
2022/09/21 09:53:24;;;;;;;0.60;0.60;;;15.70;75.20;;;15.23;61.48;95720.03;5039715;28;20234;-81
2022/09/21 09:55:57;;;;;;;0.60;0.60;;;15.70;74.40;;;15.23;60.19;95721.88;5056520;28;20652;-81
2022/09/21 09:58:56;;;;;;;0.60;0.60;;;15.80;73.90;;;15.18;60.15;95725.13;5070880;28;20226;-81
2022/09/21 10:01:45;;;;;;;0.60;0.60;;;15.80;73.60;;;15.11;60.36;95719.00;5022084;28;20250;-80
2022/09/21 10:04:19;;;;;;;0.60;0.60;;;15.80;73.70;;;15.05;59.35;95712.72;5038626;28;20248;-80
2022/09/21 10:06:46;;;;;;;0.50;0.50;;;15.70;73.60;;;15.05;59.65;95716.16;5041841;28;20308;-82
2022/09/21 10:09:31;;;;;;;0.60;0.60;;;15.70;73.50;;;14.97;59.32;95715.53;5058516;28;20198;-82
2022/09/21 10:12:16;;;;;;;0.60;0.60;;;15.70;72.40;;;14.94;59.46;95716.75;5057632;28;20640;-80
2022/09/21 10:14:53;;;;;;;0.60;0.60;;;15.70;72.90;;;14.95;60.05;95717.56;5034645;28;21540;-82
2022/09/21 10:17:22;;;;;;;0.50;0.50;;;15.60;73.00;;;14.98;59.50;95712.69;5036883;28;20233;-79
2022/09/21 10:20:03;;;;;;;0.70;0.70;;;15.60;73.60;;;15.02;59.49;95710.47;5043811;28;20294;-81
2022/09/21 10:22:30;;;;;;;0.60;0.60;;;15.60;73.40;;;15.06;59.40;95701.09;5055955;28;20699;-81
2022/09/21 10:25:04;;;;;;;0.60;0.60;;;15.60;73.20;;;15.11;58.84;95703.16;5066804;28;20221;-80
2022/09/21 10:27:36;;;;;;;0.50;0.50;;;15.70;72.80;;;15.23;59.96;95696.25;5049574;28;20719;-80
2022/09/21 10:30:03;;;;;;;0.60;0.60;;;15.70;73.30;;;15.34;60.16;95692.22;5045228;28;20656;-80
2022/09/21 10:32:31;;;;;;;0.60;0.60;;;15.80;73.80;;;15.52;59.80;95704.84;5064135;28;20241;-81
2022/09/21 10:35:06;;;;;;;0.60;0.60;;;15.90;74.10;;;15.59;58.46;95702.22;5051909;28;20263;-81
2022/09/21 10:37:40;;;;;;;0.52;0.52;;;16.00;73.10;;;15.58;57.68;95709.31;5089197;28;20308;-81
2022/09/21 10:40:19;;;;;;;0.60;0.60;;;16.10;72.60;;;15.53;57.53;95703.81;5050031;28;20198;-81
2022/09/21 10:42:58;;;;;;;0.60;0.60;;;16.10;71.50;;;15.46;57.75;95714.38;5058641;28;20213;-80
2022/09/21 10:45:36;;;;;;;0.50;0.50;;;16.10;71.40;;;15.43;58.28;95700.75;5032004;28;20695;-79
2022/09/21 10:48:16;;;;;;;0.60;0.60;;;16.10;71.70;;;15.41;58.19;95698.31;5043255;28;20414;-80
2022/09/21 10:50:49;;;;;;;0.60;0.60;;;16.00;71.50;;;15.40;57.60;95707.25;5049686;28;20201;-81
2022/09/21 10:53:28;;;;;;;0.70;0.70;;;16.10;71.70;;;15.46;58.74;95703.00;5050820;28;20607;-82
2022/09/21 10:56:07;;;;;;;0.50;0.50;;;16.10;72.30;;;15.59;58.82;95692.44;5035363;28;20550;-83
2022/09/21 10:59:21;;;;;;;0.60;0.60;;;16.10;72.30;;;15.75;59.15;95698.34;5077278;28;20281;-82
2022/09/21 11:01:52;;;;;;;0.55;0.55;;;16.20;72.50;;;15.84;59.19;95695.31;5044221;28;20213;-82